createdAt,value
2023-03-28T00:01:05.452Z,10.24
2023-03-28T00:03:39.769Z,10.08
2023-03-28T00:06:18.678Z,10.25
2023-03-28T00:08:47.646Z,10.05
2023-03-28T00:11:25.369Z,10.24
2023-03-28T00:14:01.073Z,10.16
2023-03-28T00:16:32.801Z,10.19
2023-03-28T00:19:07.016Z,10.08
2023-03-28T00:21:39.825Z,10.08
2023-03-28T00:24:13.823Z,10.18
2023-03-28T00:26:43.009Z,10.27
2023-03-28T00:29:16.615Z,10.30
2023-03-28T00:31:44.290Z,10.23
2023-03-28T00:34:12.445Z,10.16
2023-03-28T00:36:41.700Z,10.17
2023-03-28T00:39:10.481Z,10.20
2023-03-28T00:41:42.373Z,10.16
2023-03-28T00:45:03.954Z,10.03
2023-03-28T00:47:57.895Z,9.92
2023-03-28T00:50:31.588Z,10.04
2023-03-28T00:53:05.162Z,9.87
2023-03-28T00:55:44.974Z,9.60
2023-03-28T00:58:23.272Z,9.54
2023-03-28T01:00:56.666Z,9.38
2023-03-28T01:03:30.536Z,9.18
2023-03-28T01:05:59.341Z,9.18
2023-03-28T01:08:40.842Z,8.89
2023-03-28T01:11:08.588Z,8.74
2023-03-28T01:13:43.141Z,8.55
2023-03-28T01:16:14.270Z,8.57
2023-03-28T01:18:47.129Z,8.44
2023-03-28T01:21:20.349Z,8.39
2023-03-28T01:24:40.588Z,8.21
2023-03-28T01:27:41.986Z,8.03
2023-03-28T01:30:36.896Z,8.00
2023-03-28T01:34:25.018Z,7.94
2023-03-28T01:37:23.791Z,7.97
2023-03-28T01:40:11.439Z,7.96
2023-03-28T01:43:15.945Z,7.72
2023-03-28T01:46:22.412Z,7.68
2023-03-28T01:49:28.965Z,7.63
2023-03-28T01:52:06.955Z,7.66
2023-03-28T01:54:49.237Z,7.77
2023-03-28T01:57:26.506Z,7.55
2023-03-28T02:00:24.549Z,7.47
2023-03-28T02:03:13.962Z,7.26
2023-03-28T02:05:56.554Z,7.21
2023-03-28T02:08:30.108Z,7.08
2023-03-28T02:11:18.263Z,7.26
2023-03-28T02:14:19.233Z,7.19
2023-03-28T02:17:04.641Z,7.20
2023-03-28T02:19:51.721Z,6.94
2023-03-28T02:22:52.965Z,6.86
2023-03-28T02:25:39.204Z,6.68
2023-03-28T02:28:33.605Z,6.73
2023-03-28T02:31:12.010Z,6.64
2023-03-28T02:33:50.089Z,6.58
2023-03-28T02:36:46.152Z,6.45
2023-03-28T02:39:39.371Z,6.43
2023-03-28T02:42:20.787Z,6.39
2023-03-28T02:45:29.664Z,6.32
2023-03-28T02:48:33.029Z,6.18
2023-03-28T02:51:13.444Z,6.13
2023-03-28T02:54:14.083Z,6.07
2023-03-28T02:57:24.327Z,6.20
2023-03-28T03:00:08.177Z,6.04
2023-03-28T03:02:36.055Z,6.05
2023-03-28T03:05:04.040Z,6.04
2023-03-28T03:07:32.923Z,6.04
2023-03-28T03:10:00.871Z,6.08
2023-03-28T03:12:28.387Z,5.91
2023-03-28T03:15:01.143Z,5.96
2023-03-28T03:17:48.009Z,5.89
2023-03-28T03:20:18.972Z,5.85
2023-03-28T03:22:46.710Z,5.80
2023-03-28T03:25:14.764Z,5.77
2023-03-28T03:28:05.956Z,5.82
2023-03-28T03:30:33.654Z,5.69
2023-03-28T03:33:27.164Z,5.65
2023-03-28T03:36:00.851Z,5.54
2023-03-28T03:38:29.150Z,5.53
2023-03-28T03:40:56.738Z,5.52
2023-03-28T03:43:24.850Z,5.47
2023-03-28T03:45:52.548Z,5.40
2023-03-28T03:48:20.045Z,5.34
2023-03-28T03:50:47.547Z,5.31
2023-03-28T03:53:16.841Z,5.13
2023-03-28T03:55:50.933Z,5.14
2023-03-28T03:58:20.457Z,5.14
2023-03-28T04:00:49.399Z,5.06
2023-03-28T04:03:34.354Z,5.07
2023-03-28T04:06:05.309Z,4.99
2023-03-28T04:08:34.448Z,4.99
2023-03-28T04:11:02.860Z,4.94
2023-03-28T04:13:37.817Z,4.96
2023-03-28T04:16:07.523Z,5.01
2023-03-28T04:18:50.561Z,4.94
2023-03-28T04:21:27.700Z,4.90
2023-03-28T04:23:57.074Z,4.92
2023-03-28T04:26:41.742Z,4.90
2023-03-28T04:29:12.631Z,4.87
2023-03-28T04:31:50.283Z,4.80
2023-03-28T04:34:38.902Z,4.70
2023-03-28T04:37:15.400Z,4.76
2023-03-28T04:39:55.802Z,4.78
2023-03-28T04:42:41.963Z,4.83
2023-03-28T04:45:15.006Z,4.93
2023-03-28T04:47:43.976Z,4.82
2023-03-28T04:50:17.527Z,4.82
2023-03-28T04:52:45.647Z,4.78
2023-03-28T04:55:16.235Z,4.82
2023-03-28T04:57:44.679Z,4.90
2023-03-28T05:00:16.914Z,4.82
2023-03-28T05:03:06.047Z,4.79
2023-03-28T05:05:47.823Z,4.91
2023-03-28T05:08:18.612Z,5.01
2023-03-28T05:10:47.301Z,4.93
2023-03-28T05:13:16.829Z,5.03
2023-03-28T05:15:53.468Z,4.94
2023-03-28T05:18:53.134Z,4.97
2023-03-28T05:21:28.616Z,4.98
2023-03-28T05:23:56.878Z,5.05
2023-03-28T05:26:28.823Z,5.16
2023-03-28T05:28:57.029Z,5.10
2023-03-28T05:31:26.209Z,5.10
2023-03-28T05:34:06.802Z,5.05
2023-03-28T05:36:42.860Z,5.04
2023-03-28T05:39:20.560Z,5.01
2023-03-28T05:41:48.101Z,5.02
2023-03-28T05:44:18.782Z,4.89
2023-03-28T05:47:12.245Z,4.90
2023-03-28T05:49:39.746Z,4.94
2023-03-28T05:52:07.300Z,4.97
2023-03-28T05:54:34.977Z,5.06
2023-03-28T05:57:02.549Z,5.11
2023-03-28T05:59:30.146Z,5.10
2023-03-28T06:01:58.520Z,5.10
2023-03-28T06:04:26.353Z,5.24
2023-03-28T06:06:53.846Z,5.21
2023-03-28T06:09:26.389Z,5.31
2023-03-28T06:11:59.671Z,5.33
2023-03-28T06:14:28.388Z,5.31
2023-03-28T06:16:59.770Z,5.48
2023-03-28T06:19:34.660Z,5.58
2023-03-28T06:22:03.037Z,5.70
2023-03-28T06:24:31.445Z,5.66
2023-03-28T06:26:59.866Z,5.69
2023-03-28T06:29:27.418Z,5.70
2023-03-28T06:32:04.359Z,5.75
2023-03-28T06:34:31.808Z,5.74
2023-03-28T06:37:03.137Z,5.70
2023-03-28T06:39:44.503Z,5.84
2023-03-28T06:42:12.221Z,5.96
2023-03-28T06:44:50.677Z,5.90
2023-03-28T06:47:38.366Z,5.96
2023-03-28T06:50:07.818Z,6.08
2023-03-28T06:52:54.666Z,6.03
2023-03-28T06:55:22.886Z,5.92
2023-03-28T06:57:50.422Z,6.08
2023-03-28T07:00:27.390Z,6.04
2023-03-28T07:03:14.855Z,6.27
2023-03-28T07:05:43.883Z,6.45
2023-03-28T07:08:14.135Z,6.43
2023-03-28T07:10:42.668Z,6.42
2023-03-28T07:13:13.621Z,6.52
2023-03-28T07:16:06.843Z,6.56
2023-03-28T07:18:37.261Z,6.72
2023-03-28T07:21:17.773Z,6.70
2023-03-28T07:23:45.859Z,6.82
2023-03-28T07:26:16.834Z,6.84
2023-03-28T07:28:46.273Z,6.92
2023-03-28T07:31:13.856Z,6.83
2023-03-28T07:33:41.460Z,6.90
2023-03-28T07:36:20.131Z,7.29
2023-03-28T07:38:51.720Z,7.40
2023-03-28T07:41:22.642Z,7.41
2023-03-28T07:43:50.803Z,7.21
2023-03-28T07:46:21.018Z,7.08
2023-03-28T07:48:48.687Z,7.31
2023-03-28T07:51:17.726Z,7.59
2023-03-28T07:53:46.118Z,7.57
2023-03-28T07:56:14.206Z,7.66
2023-03-28T07:59:07.901Z,7.80
2023-03-28T08:01:36.007Z,7.57
2023-03-28T08:04:05.316Z,7.91
2023-03-28T08:06:45.660Z,7.88
2023-03-28T08:09:17.046Z,7.97
2023-03-28T08:11:48.881Z,7.89
2023-03-28T08:14:18.867Z,7.84
2023-03-28T08:16:47.181Z,8.05
2023-03-28T08:19:15.722Z,8.12
2023-03-28T08:22:07.800Z,8.12
2023-03-28T08:24:43.833Z,8.10
2023-03-28T08:27:14.271Z,8.04
2023-03-28T08:29:44.478Z,8.23
2023-03-28T08:32:12.486Z,8.39
2023-03-28T08:34:42.961Z,8.62
2023-03-28T08:37:15.768Z,8.64
2023-03-28T08:39:47.430Z,8.29
2023-03-28T08:42:36.487Z,8.29
2023-03-28T08:45:14.127Z,8.42
2023-03-28T08:48:13.125Z,8.66
2023-03-28T08:51:16.503Z,8.47
2023-03-28T08:54:14.658Z,8.29
2023-03-28T08:56:53.340Z,8.33
2023-03-28T08:59:45.147Z,8.34
2023-03-28T09:02:26.936Z,8.41
2023-03-28T09:05:08.189Z,8.51
2023-03-28T09:08:29.103Z,8.56
2023-03-28T09:11:38.831Z,8.65
2023-03-28T09:14:49.031Z,8.83
2023-03-28T09:17:36.138Z,8.94
2023-03-28T09:20:43.306Z,9.21
2023-03-28T09:24:06.172Z,9.17
2023-03-28T09:27:39.015Z,9.48
2023-03-28T09:30:27.628Z,9.23
2023-03-28T09:33:01.146Z,8.69
2023-03-28T09:35:31.544Z,8.72
2023-03-28T09:38:07.041Z,8.99
2023-03-28T09:40:42.724Z,9.35
2023-03-28T09:43:47.169Z,9.58
2023-03-28T09:47:00.592Z,9.81
2023-03-28T09:49:43.867Z,9.62
2023-03-28T09:52:19.148Z,9.57
2023-03-28T09:54:47.723Z,9.72
2023-03-28T09:57:15.582Z,9.84
2023-03-28T09:59:46.193Z,10.07
2023-03-28T10:02:32.509Z,10.00
2023-03-28T10:05:34.770Z,9.75
2023-03-28T10:08:23.240Z,9.88
2023-03-28T10:11:14.732Z,10.06
2023-03-28T10:13:47.419Z,10.19
2023-03-28T10:16:31.650Z,10.12
2023-03-28T10:19:42.193Z,10.02
2023-03-28T10:22:25.618Z,10.10
2023-03-28T10:24:55.400Z,10.00
2023-03-28T10:27:31.972Z,9.80
2023-03-28T10:30:32.064Z,9.25
2023-03-28T10:33:17.900Z,9.16
2023-03-28T10:36:09.952Z,9.49
2023-03-28T10:38:46.658Z,9.63
2023-03-28T10:41:32.646Z,9.85
2023-03-28T10:44:19.400Z,10.19
2023-03-28T10:47:18.941Z,10.45
2023-03-28T10:49:56.353Z,10.21
2023-03-28T10:52:54.793Z,10.06
2023-03-28T10:55:40.667Z,10.20
2023-03-28T10:58:39.980Z,10.38
2023-03-28T11:01:33.465Z,10.43
2023-03-28T11:04:23.462Z,10.62
2023-03-28T11:07:22.579Z,10.55
2023-03-28T11:10:25.144Z,10.60
2023-03-28T11:13:35.008Z,10.71
2023-03-28T11:16:45.131Z,10.81
2023-03-28T11:20:03.972Z,11.06
2023-03-28T11:23:08.558Z,10.77
2023-03-28T11:26:02.703Z,10.83
2023-03-28T11:29:06.136Z,10.49
2023-03-28T11:31:46.799Z,10.66
2023-03-28T11:34:39.245Z,10.74
2023-03-28T11:37:27.953Z,10.80
2023-03-28T11:40:11.679Z,10.98
2023-03-28T11:43:02.236Z,10.87
2023-03-28T11:45:51.876Z,10.51
2023-03-28T11:48:47.124Z,10.54
2023-03-28T11:52:16.654Z,10.23
2023-03-28T11:54:51.282Z,10.18
2023-03-28T11:57:21.768Z,10.24
2023-03-28T12:00:14.866Z,10.35
2023-03-28T12:02:55.682Z,10.53
2023-03-28T12:05:43.773Z,10.32
2023-03-28T12:08:37.475Z,10.50
2023-03-28T12:11:37.028Z,10.77
2023-03-28T12:14:48.031Z,10.93
2023-03-28T12:17:47.100Z,10.63
2023-03-28T12:20:29.274Z,10.34
2023-03-28T12:23:04.536Z,10.17
2023-03-28T12:31:57.676Z,9.20
2023-03-28T12:34:44.300Z,8.97
2023-03-28T12:37:38.196Z,9.12
2023-03-28T13:01:56.680Z,9.23
2023-03-28T13:05:15.362Z,9.07
2023-03-28T13:07:57.775Z,8.84
2023-03-28T13:10:57.631Z,8.82
2023-03-28T13:13:34.296Z,9.14
2023-03-28T13:16:14.242Z,9.20
2023-03-28T13:19:04.528Z,9.21
2023-03-28T13:21:55.910Z,9.05
2023-03-28T13:24:27.177Z,9.06
2023-03-28T13:27:00.120Z,9.16
2023-03-28T13:29:52.018Z,9.21
2023-03-28T13:32:24.407Z,9.34
2023-03-28T13:35:05.469Z,9.44
2023-03-28T13:38:23.032Z,9.30
2023-03-28T13:41:09.563Z,9.11
2023-03-28T13:43:54.498Z,9.07
2023-03-28T13:46:48.040Z,9.20
2023-03-28T13:49:36.506Z,9.15
2023-03-28T13:52:12.578Z,9.18
2023-03-28T13:54:40.057Z,9.51
2023-03-28T13:57:17.773Z,10.04
2023-03-28T13:59:54.559Z,10.16
2023-03-28T14:02:47.144Z,9.75
2023-03-28T14:05:28.055Z,9.50
2023-03-28T14:08:18.744Z,9.41
2023-03-28T14:10:48.017Z,9.36
2023-03-28T14:13:26.107Z,9.37
2023-03-28T14:15:55.475Z,9.25
2023-03-28T14:18:34.462Z,9.05
2023-03-28T14:21:02.831Z,9.12
2023-03-28T14:23:37.266Z,9.10
2023-03-28T14:26:15.328Z,9.24
2023-03-28T14:28:46.077Z,9.18
2023-03-28T14:31:40.474Z,9.34
2023-03-28T14:34:26.524Z,9.17
2023-03-28T14:37:01.318Z,8.93
2023-03-28T14:39:33.136Z,9.12
2023-03-28T14:42:08.509Z,9.15
2023-03-28T14:44:41.594Z,8.87
2023-03-28T14:47:30.130Z,9.09
2023-03-28T14:50:18.173Z,9.21
2023-03-28T14:52:45.947Z,9.53
2023-03-28T14:55:23.924Z,9.99
2023-03-28T14:57:53.702Z,10.35
2023-03-28T15:00:27.606Z,10.83
2023-03-28T15:02:56.228Z,10.90
2023-03-28T15:05:24.607Z,10.60
2023-03-28T15:08:01.349Z,10.51
2023-03-28T15:10:30.814Z,10.79
2023-03-28T15:13:14.062Z,11.27
2023-03-28T15:15:48.093Z,11.02
2023-03-28T15:18:21.346Z,10.62
2023-03-28T15:20:52.651Z,10.36
2023-03-28T15:23:29.363Z,10.92
2023-03-28T15:26:01.228Z,11.30
2023-03-28T15:28:30.691Z,11.34
2023-03-28T15:31:01.349Z,10.93
2023-03-28T15:33:34.581Z,10.41
2023-03-28T15:36:34.845Z,9.96
2023-03-28T15:39:30.432Z,9.98
2023-03-28T15:42:22.699Z,10.14
2023-03-28T15:44:59.173Z,10.26
2023-03-28T15:47:30.897Z,10.62
2023-03-28T15:50:08.962Z,10.99
2023-03-28T15:52:36.969Z,11.30
2023-03-28T15:55:07.138Z,10.60
2023-03-28T15:57:35.498Z,9.88
2023-03-28T16:00:04.398Z,9.52
2023-03-28T16:02:40.836Z,9.58
2023-03-28T16:05:11.002Z,9.58
2023-03-28T16:07:51.535Z,9.66
2023-03-28T16:10:25.264Z,9.35
2023-03-28T16:13:14.618Z,9.11
2023-03-28T16:15:53.914Z,8.95
2023-03-28T16:18:34.486Z,8.89
2023-03-28T16:21:04.420Z,8.71
2023-03-28T16:23:31.917Z,8.64
2023-03-28T16:25:59.705Z,8.53
2023-03-28T16:28:27.457Z,8.31
2023-03-28T16:30:54.990Z,8.25
2023-03-28T16:33:23.585Z,8.13
2023-03-28T16:35:55.043Z,8.15
2023-03-28T16:38:23.410Z,8.03
2023-03-28T16:40:51.342Z,8.05
2023-03-28T16:43:18.894Z,8.02
2023-03-28T16:45:49.993Z,7.85
2023-03-28T16:48:17.798Z,7.93
2023-03-28T16:50:58.666Z,7.80
2023-03-28T16:53:26.326Z,7.59
2023-03-28T16:55:53.940Z,7.45
2023-03-28T16:58:21.686Z,7.61
2023-03-28T17:00:52.073Z,7.72
2023-03-28T17:03:20.575Z,7.77
2023-03-28T17:05:48.463Z,7.60
2023-03-28T17:08:16.211Z,7.52
2023-03-28T17:10:47.327Z,7.48
2023-03-28T17:13:15.618Z,7.70
2023-03-28T17:15:43.355Z,7.49
2023-03-28T17:18:11.556Z,7.42
2023-03-28T17:20:40.670Z,7.57
2023-03-28T17:23:11.208Z,7.41
2023-03-28T17:25:53.903Z,7.48
2023-03-28T17:28:24.785Z,7.37
2023-03-28T17:30:52.561Z,7.41
2023-03-28T17:33:21.045Z,7.37
2023-03-28T17:36:11.997Z,7.17
2023-03-28T17:38:39.653Z,7.08
2023-03-28T17:41:08.332Z,7.19
2023-03-28T17:43:35.936Z,7.03
2023-03-28T17:46:04.335Z,7.06
2023-03-28T17:48:32.287Z,7.24
2023-03-28T17:51:03.452Z,7.31
2023-03-28T17:53:31.166Z,7.16
2023-03-28T17:56:00.966Z,7.22
2023-03-28T17:58:30.903Z,7.20
2023-03-28T18:01:01.230Z,7.08
2023-03-28T18:03:31.452Z,7.26
2023-03-28T18:06:22.368Z,7.30
2023-03-28T18:08:49.880Z,7.18
2023-03-28T18:11:20.414Z,7.04
2023-03-28T18:13:52.668Z,7.19
2023-03-28T18:16:20.422Z,7.51
2023-03-28T18:18:48.064Z,7.46
2023-03-28T18:21:17.352Z,7.35
2023-03-28T18:23:46.228Z,7.37
2023-03-28T18:26:17.021Z,7.31
2023-03-28T18:28:47.557Z,7.33
2023-03-28T18:31:20.182Z,7.35
2023-03-28T18:33:49.435Z,7.29
2023-03-28T18:36:20.435Z,7.20
2023-03-28T18:38:50.036Z,7.26
2023-03-28T18:41:19.726Z,7.29
2023-03-28T18:43:47.393Z,7.33
2023-03-28T18:46:16.430Z,7.28
2023-03-28T18:48:47.681Z,7.34
2023-03-28T18:51:15.882Z,7.30
2023-03-28T18:53:44.065Z,7.10
2023-03-28T18:56:13.671Z,7.11
2023-03-28T18:58:41.509Z,7.20
2023-03-28T19:01:11.537Z,7.19
2023-03-28T19:03:42.464Z,7.20
2023-03-28T19:06:15.319Z,6.99
2023-03-28T19:08:45.220Z,6.84
2023-03-28T19:11:19.578Z,7.02
2023-03-28T19:13:50.536Z,7.03
2023-03-28T19:16:19.453Z,7.15
2023-03-28T19:18:48.118Z,7.17
2023-03-28T19:21:17.833Z,6.92
2023-03-28T19:23:48.903Z,6.77
2023-03-28T19:26:18.325Z,6.66
2023-03-28T19:28:47.433Z,6.49
2023-03-28T19:31:15.607Z,6.46
2023-03-28T19:33:44.974Z,6.35
2023-03-28T19:36:12.748Z,6.34
2023-03-28T19:38:41.027Z,6.25
2023-03-28T19:41:19.218Z,6.23
2023-03-28T19:43:48.763Z,6.17
2023-03-28T19:46:24.383Z,6.31
2023-03-28T19:48:59.658Z,6.39
2023-03-28T19:51:28.646Z,6.39
2023-03-28T19:53:57.175Z,6.36
2023-03-28T19:56:24.951Z,6.21
2023-03-28T19:58:54.826Z,6.16
2023-03-28T20:01:22.413Z,6.15
2023-03-28T20:03:53.115Z,6.08
2023-03-28T20:06:22.992Z,5.79
2023-03-28T20:08:51.068Z,5.55
2023-03-28T20:11:19.212Z,5.57
2023-03-28T20:13:46.858Z,5.53
2023-03-28T20:16:14.895Z,5.61
2023-03-28T20:18:42.604Z,5.42
2023-03-28T20:21:13.827Z,5.45
2023-03-28T20:23:41.940Z,5.52
2023-03-28T20:26:16.194Z,5.35
2023-03-28T20:28:47.821Z,5.37
2023-03-28T20:31:16.211Z,5.50
2023-03-28T20:33:44.100Z,5.56
2023-03-28T20:36:12.275Z,5.43
2023-03-28T20:38:41.383Z,5.47
2023-03-28T20:41:13.863Z,5.51
2023-03-28T20:43:47.092Z,5.45
2023-03-28T20:46:20.205Z,5.38
2023-03-28T20:48:56.826Z,5.37
2023-03-28T20:51:26.100Z,5.21
2023-03-28T20:53:59.672Z,5.20
2023-03-28T20:56:30.081Z,5.29
2023-03-28T20:58:59.628Z,5.16
2023-03-28T21:01:30.167Z,5.00
2023-03-28T21:04:00.057Z,4.84
2023-03-28T21:06:36.667Z,4.79
2023-03-28T21:09:10.837Z,4.66
2023-03-28T21:11:39.588Z,4.53
2023-03-28T21:14:10.405Z,4.68
2023-03-28T21:16:38.084Z,4.48
2023-03-28T21:19:06.194Z,4.35
2023-03-28T21:21:36.540Z,4.36
2023-03-28T21:24:05.387Z,4.36
2023-03-28T21:26:33.035Z,4.11
2023-03-28T21:29:00.929Z,4.16
2023-03-28T21:31:30.156Z,4.27
2023-03-28T21:33:59.282Z,4.24
2023-03-28T21:36:28.068Z,4.29
2023-03-28T21:38:58.860Z,4.27
2023-03-28T21:41:29.652Z,4.25
2023-03-28T21:43:57.910Z,4.35
2023-03-28T21:46:28.434Z,4.46
2023-03-28T21:48:56.218Z,4.39
2023-03-28T21:51:23.933Z,4.47
2023-03-28T21:53:52.393Z,4.35
2023-03-28T21:56:20.044Z,4.52
2023-03-28T21:58:47.552Z,4.51
2023-03-28T22:01:18.399Z,4.48
2023-03-28T22:03:47.598Z,4.48
2023-03-28T22:06:17.727Z,4.44
2023-03-28T22:08:51.785Z,4.52
2023-03-28T22:11:27.788Z,4.42
2023-03-28T22:14:04.961Z,4.52
2023-03-28T22:16:38.598Z,4.53
2023-03-28T22:19:11.373Z,4.55
2023-03-28T22:21:38.869Z,4.52
2023-03-28T22:24:13.176Z,4.52
2023-03-28T22:26:44.967Z,4.44
2023-03-28T22:29:12.704Z,4.41
2023-03-28T22:31:40.600Z,4.26
2023-03-28T22:34:13.080Z,4.26
2023-03-28T22:36:41.088Z,4.38
2023-03-28T22:39:08.543Z,4.31
2023-03-28T22:41:36.258Z,4.23
2023-03-28T22:44:04.162Z,4.23
2023-03-28T22:46:31.802Z,4.35
2023-03-28T22:49:04.581Z,4.17
2023-03-28T22:51:32.028Z,4.22
2023-03-28T22:54:01.905Z,4.32
2023-03-28T22:56:29.652Z,4.32
2023-03-28T22:59:01.304Z,4.39
2023-03-28T23:01:29.178Z,4.27
2023-03-28T23:03:57.069Z,4.32
2023-03-28T23:06:24.612Z,4.19
2023-03-28T23:08:52.204Z,4.31
2023-03-28T23:11:22.713Z,4.26
2023-03-28T23:13:50.604Z,4.26
2023-03-28T23:16:18.455Z,4.30
2023-03-28T23:18:45.964Z,4.32
2023-03-28T23:21:13.564Z,4.28
2023-03-28T23:23:42.342Z,4.18
2023-03-28T23:26:09.884Z,4.32
2023-03-28T23:28:37.317Z,4.24
2023-03-28T23:31:07.134Z,4.17
2023-03-28T23:33:34.729Z,4.21
2023-03-28T23:36:02.223Z,4.13
2023-03-28T23:38:29.742Z,4.10
2023-03-28T23:40:57.266Z,4.11
2023-03-28T23:43:26.244Z,3.95
2023-03-28T23:45:53.816Z,4.03
2023-03-28T23:48:21.275Z,4.08
2023-03-28T23:50:48.740Z,3.99
2023-03-28T23:53:16.668Z,3.84
2023-03-28T23:55:44.137Z,3.89
2023-03-28T23:58:11.614Z,4.08
